Time;durP1;ratioP1;P1;durP2;ratioP2;P2;SDS_P1;SDS_P2;PMS_P1;PMS_P2;Temp;Humidity;BMP_temperature;BMP_pressure;BME280_temperature;BME280_humidity;BME280_pressure;Samples;Min_cycle;Max_cycle;Signal;HPM_P1;HPM_P2
2023/01/16 00:01:31;;;;;;;9.40;3.80;;;3.80;99.90;;;;;;5081347;28;20105;-87
2023/01/16 00:03:59;;;;;;;5.50;3.60;;;3.80;99.90;;;;;;5089471;28;20056;-87
2023/01/16 00:06:30;;;;;;;7.30;4.43;;;3.50;99.90;;;;;;5053810;28;20037;-86
2023/01/16 00:09:02;;;;;;;5.43;3.88;;;3.60;99.90;;;;;;5082761;28;20052;-86
2023/01/16 00:11:30;;;;;;;8.50;3.78;;;3.50;99.90;;;;;;5047198;28;20431;-86
2023/01/16 00:13:56;;;;;;;8.77;3.63;;;3.40;99.90;;;;;;5077617;28;20075;-86
2023/01/16 00:16:22;;;;;;;7.65;3.65;;;3.20;99.90;;;;;;5074613;28;20246;-86
2023/01/16 00:18:50;;;;;;;7.05;3.40;;;3.30;99.90;;;;;;5089448;28;20040;-88
2023/01/16 00:21:17;;;;;;;8.40;3.83;;;3.00;99.90;;;;;;5057345;28;20131;-86
2023/01/16 00:23:49;;;;;;;5.15;3.30;;;3.00;99.90;;;;;;5072366;28;20076;-88
2023/01/16 00:26:17;;;;;;;6.85;3.55;;;3.20;99.90;;;;;;5057641;28;20040;-87
2023/01/16 00:28:45;;;;;;;7.00;4.60;;;3.00;99.90;;;;;;5061621;28;20052;-86
2023/01/16 00:31:14;;;;;;;9.48;3.75;;;2.90;99.90;;;;;;5090203;28;20040;-85
2023/01/16 00:33:42;;;;;;;10.13;4.00;;;3.00;99.90;;;;;;5073696;28;20060;-86
2023/01/16 00:36:09;;;;;;;9.88;3.80;;;2.80;99.90;;;;;;5058469;28;20036;-90
2023/01/16 00:38:41;;;;;;;8.20;3.80;;;2.70;99.90;;;;;;5061677;28;20044;-86
2023/01/16 00:41:09;;;;;;;8.05;3.60;;;2.80;99.90;;;;;;5072888;28;20055;-90
2023/01/16 00:43:46;;;;;;;9.38;4.43;;;2.70;99.90;;;;;;5056949;28;20770;-85
2023/01/16 00:46:12;;;;;;;10.13;3.92;;;2.60;99.90;;;;;;5066847;28;20048;-86
2023/01/16 00:48:40;;;;;;;9.40;3.80;;;2.70;99.90;;;;;;5048377;28;20035;-85
2023/01/16 00:51:08;;;;;;;13.48;3.92;;;2.50;99.90;;;;;;5056706;28;20044;-86
2023/01/16 00:53:36;;;;;;;14.80;3.92;;;2.40;99.90;;;;;;5072847;28;20135;-87
2023/01/16 00:56:03;;;;;;;10.35;4.00;;;2.50;99.90;;;;;;5073427;28;20051;-86
2023/01/16 00:58:28;;;;;;;8.80;4.18;;;2.50;99.90;;;;;;5072772;28;20181;-89
2023/01/16 01:00:57;;;;;;;9.23;3.90;;;2.50;99.90;;;;;;5072004;28;20564;-85
2023/01/16 01:03:30;;;;;;;7.38;3.67;;;2.70;99.90;;;;;;5058720;28;20052;-85
2023/01/16 01:05:56;;;;;;;13.38;4.10;;;2.90;99.90;;;;;;5090523;28;20125;-86
2023/01/16 01:08:21;;;;;;;8.65;3.97;;;2.90;99.90;;;;;;5091047;28;20106;-86
2023/01/16 01:10:50;;;;;;;7.93;4.15;;;2.70;99.90;;;;;;5065453;28;20040;-86
2023/01/16 01:13:16;;;;;;;12.98;4.95;;;2.90;99.90;;;;;;5080834;28;20055;-86
2023/01/16 01:15:44;;;;;;;11.35;4.22;;;2.70;99.90;;;;;;5069442;28;20750;-87
2023/01/16 01:18:18;;;;;;;10.77;4.57;;;2.70;99.90;;;;;;5062193;28;20083;-88
2023/01/16 01:20:48;;;;;;;11.90;4.20;;;2.60;99.90;;;;;;5067309;28;20036;-87
2023/01/16 01:23:24;;;;;;;11.77;4.40;;;2.60;99.90;;;;;;5060593;28;20079;-87
2023/01/16 01:25:52;;;;;;;11.70;5.18;;;2.80;99.90;;;;;;5086080;28;20118;-86
2023/01/16 01:28:18;;;;;;;13.13;4.57;;;2.80;99.90;;;;;;5056497;28;20451;-85
2023/01/16 01:30:44;;;;;;;11.77;4.40;;;2.80;99.90;;;;;;5070698;28;20048;-87
2023/01/16 01:33:12;;;;;;;11.75;3.97;;;2.80;99.90;;;;;;5062779;28;20051;-85
2023/01/16 01:35:46;;;;;;;15.70;4.47;;;2.80;99.90;;;;;;5056288;28;20052;-89
2023/01/16 01:38:12;;;;;;;9.13;4.75;;;2.80;99.90;;;;;;5066264;28;20044;-86
2023/01/16 01:40:40;;;;;;;14.02;3.85;;;2.80;99.90;;;;;;5057246;28;20074;-87
2023/01/16 01:43:16;;;;;;;9.68;3.35;;;2.60;99.90;;;;;;5084361;28;20048;-85
2023/01/16 01:45:51;;;;;;;7.72;3.83;;;2.50;99.90;;;;;;5069645;28;20050;-86
2023/01/16 01:48:29;;;;;;;11.32;3.92;;;2.80;99.90;;;;;;5063006;28;20052;-88
2023/01/16 01:51:19;;;;;;;14.68;3.90;;;2.50;99.90;;;;;;5058722;28;20481;-85
2023/01/16 01:53:55;;;;;;;8.40;3.60;;;2.70;99.90;;;;;;5055702;28;20438;-85
2023/01/16 01:56:36;;;;;;;13.70;3.55;;;2.60;99.90;;;;;;5083434;28;20044;-86
2023/01/16 01:59:10;;;;;;;12.30;4.45;;;2.90;99.90;;;;;;5073174;28;20123;-86
2023/01/16 02:01:44;;;;;;;10.15;3.58;;;2.80;99.90;;;;;;5053546;28;20056;-86
2023/01/16 02:04:18;;;;;;;10.38;3.63;;;3.00;99.90;;;;;;5074341;28;20448;-86
2023/01/16 02:06:53;;;;;;;14.38;4.30;;;3.10;99.90;;;;;;5088427;28;20121;-87
2023/01/16 02:09:24;;;;;;;13.45;4.00;;;3.20;99.90;;;;;;5084800;28;20040;-91
2023/01/16 02:11:54;;;;;;;12.30;3.70;;;3.50;99.90;;;;;;5071021;28;20044;-85
2023/01/16 02:14:22;;;;;;;12.23;3.70;;;3.50;99.90;;;;;;5082936;28;20044;-92
2023/01/16 02:20:12;;;;;;;7.88;3.30;;;3.30;99.90;;;;;;5084721;28;20052;-87
2023/01/16 02:23:11;;;;;;;12.35;3.70;;;3.10;99.90;;;;;;5065911;28;20043;-88
2023/01/16 02:25:43;;;;;;;9.15;3.38;;;3.10;99.90;;;;;;5081443;28;20489;-85
2023/01/16 02:28:38;;;;;;;14.00;3.30;;;3.00;99.90;;;;;;5073299;28;20151;-86
2023/01/16 02:31:26;;;;;;;13.40;4.07;;;3.00;99.90;;;;;;5055153;28;20056;-88
2023/01/16 02:34:07;;;;;;;12.82;3.25;;;3.00;99.90;;;;;;5079562;28;20037;-85
2023/01/16 02:36:32;;;;;;;10.57;3.42;;;2.90;99.90;;;;;;5071770;28;20663;-86
2023/01/16 02:39:16;;;;;;;13.90;3.60;;;2.80;99.90;;;;;;5071873;28;20045;-85
2023/01/16 02:41:58;;;;;;;11.88;3.35;;;2.80;99.90;;;;;;5075530;28;20051;-85
2023/01/16 02:44:38;;;;;;;9.93;3.30;;;2.80;99.90;;;;;;5076422;28;20036;-89
2023/01/16 02:47:38;;;;;;;6.80;3.30;;;2.70;99.90;;;;;;5070420;28;20405;-85
2023/01/16 02:50:27;;;;;;;8.15;3.13;;;2.70;99.90;;;;;;5045877;28;20105;-86
2023/01/16 02:52:57;;;;;;;9.30;3.40;;;2.60;99.90;;;;;;5088850;28;20120;-85
2023/01/16 02:55:33;;;;;;;11.90;3.50;;;2.70;99.90;;;;;;5066076;28;20057;-85
2023/01/16 02:58:04;;;;;;;9.40;3.13;;;2.60;99.90;;;;;;5078128;28;20832;-86
2023/01/16 03:00:30;;;;;;;7.57;3.40;;;2.60;99.90;;;;;;5073902;28;20106;-86
2023/01/16 03:02:56;;;;;;;12.13;3.67;;;2.60;99.90;;;;;;5046602;28;20421;-85
2023/01/16 03:05:22;;;;;;;14.55;4.10;;;2.60;99.90;;;;;;5057961;28;20032;-85
2023/01/16 03:08:38;;;;;;;13.63;3.67;;;2.70;99.90;;;;;;5084324;28;20055;-86
2023/01/16 03:11:11;;;;;;;7.53;3.63;;;2.70;99.90;;;;;;5015674;28;20052;-85
2023/01/16 03:14:14;;;;;;;11.23;3.78;;;2.80;99.90;;;;;;5059621;28;20422;-85
2023/01/16 03:16:59;;;;;;;10.50;3.80;;;2.80;99.90;;;;;;5072197;28;20408;-86
2023/01/16 03:19:51;;;;;;;10.05;4.60;;;2.90;99.90;;;;;;5056624;28;20048;-87
2023/01/16 03:22:55;;;;;;;12.10;3.70;;;2.90;99.90;;;;;;5075652;28;20538;-85
2023/01/16 03:25:28;;;;;;;11.18;4.05;;;3.00;99.90;;;;;;5081213;28;20139;-85
2023/01/16 03:27:57;;;;;;;11.45;4.00;;;3.10;99.90;;;;;;5063440;28;20040;-85
2023/01/16 03:30:42;;;;;;;10.63;4.05;;;3.20;99.90;;;;;;5075640;28;20043;-85
2023/01/16 03:33:14;;;;;;;13.80;4.22;;;3.30;99.90;;;;;;5070400;28;20046;-86
2023/01/16 03:35:54;;;;;;;15.05;4.90;;;3.30;99.90;;;;;;5085132;28;20094;-85
2023/01/16 03:38:21;;;;;;;13.15;4.53;;;3.40;99.90;;;;;;5089287;28;20044;-86
2023/01/16 03:40:51;;;;;;;12.93;4.30;;;3.40;99.90;;;;;;5071335;28;20075;-85
2023/01/16 03:43:23;;;;;;;9.35;5.32;;;3.50;99.90;;;;;;5044495;28;20482;-85
2023/01/16 03:45:58;;;;;;;12.57;4.80;;;3.50;99.90;;;;;;5071629;28;20087;-84
2023/01/16 03:48:47;;;;;;;10.05;4.32;;;3.50;99.90;;;;;;5070546;28;20079;-85
2023/01/16 03:51:19;;;;;;;9.60;4.57;;;3.50;99.90;;;;;;5063966;28;20047;-86
2023/01/16 03:53:53;;;;;;;13.50;5.07;;;3.50;99.90;;;;;;5082730;28;20060;-85
2023/01/16 03:56:57;;;;;;;10.98;4.88;;;3.60;99.90;;;;;;5074980;28;20051;-89
2023/01/16 03:59:23;;;;;;;11.68;5.22;;;3.60;99.90;;;;;;5055887;28;20135;-85
2023/01/16 04:02:00;;;;;;;11.45;5.78;;;3.60;99.90;;;;;;5085844;28;20060;-85
2023/01/16 04:04:43;;;;;;;14.60;5.43;;;3.60;99.90;;;;;;5069803;28;20045;-86
2023/01/16 04:07:20;;;;;;;10.07;5.15;;;3.70;99.90;;;;;;5055313;28;20105;-84
2023/01/16 04:09:53;;;;;;;8.77;4.85;;;3.70;99.90;;;;;;5061734;28;20066;-85
2023/01/16 04:12:23;;;;;;;10.00;5.35;;;3.70;99.90;;;;;;5081802;28;20093;-86
2023/01/16 04:14:54;;;;;;;11.55;5.47;;;4.00;99.90;;;;;;5073527;28;20124;-86
2023/01/16 04:17:20;;;;;;;9.85;6.07;;;3.80;99.90;;;;;;5074997;28;20059;-85
2023/01/16 04:19:46;;;;;;;11.93;5.40;;;3.80;99.90;;;;;;5061492;28;20451;-87
2023/01/16 04:22:21;;;;;;;12.70;5.53;;;3.80;99.90;;;;;;5091568;28;20044;-86
2023/01/16 04:24:47;;;;;;;14.20;5.80;;;3.70;99.90;;;;;;5082031;28;20046;-85
2023/01/16 04:27:13;;;;;;;11.38;6.03;;;3.70;99.90;;;;;;5071515;28;20056;-86
2023/01/16 04:29:38;;;;;;;19.45;6.50;;;3.70;99.90;;;;;;5091220;28;20127;-90
2023/01/16 04:32:04;;;;;;;13.27;6.15;;;3.70;99.90;;;;;;5053554;28;20037;-86
2023/01/16 04:34:32;;;;;;;13.43;6.45;;;3.70;99.90;;;;;;5040238;28;20089;-86
2023/01/16 04:36:58;;;;;;;13.93;6.32;;;3.70;99.90;;;;;;5045888;28;20063;-85
2023/01/16 04:39:24;;;;;;;15.98;7.38;;;3.80;99.90;;;;;;5084010;28;20041;-85
2023/01/16 04:41:50;;;;;;;11.25;6.78;;;3.80;99.90;;;;;;5076117;28;20401;-85
2023/01/16 04:44:17;;;;;;;15.32;7.95;;;3.90;99.90;;;;;;5074002;28;20105;-86
2023/01/16 04:46:42;;;;;;;13.48;8.13;;;4.00;99.90;;;;;;5070425;28;20089;-86
2023/01/16 04:49:08;;;;;;;18.25;9.23;;;3.90;99.90;;;;;;5085351;28;20134;-85
2023/01/16 04:51:36;;;;;;;16.27;9.13;;;4.00;99.90;;;;;;5067062;28;20048;-86
2023/01/16 04:54:03;;;;;;;18.35;9.73;;;3.90;99.90;;;;;;5066779;28;20048;-86
2023/01/16 04:56:29;;;;;;;18.85;10.60;;;4.00;99.90;;;;;;5082362;28;20097;-85
2023/01/16 04:58:55;;;;;;;18.40;10.23;;;4.00;99.90;;;;;;5066553;28;20559;-85
2023/01/16 05:01:22;;;;;;;22.02;11.15;;;4.00;99.90;;;;;;5065074;28;20044;-85
2023/01/16 05:03:48;;;;;;;21.40;11.02;;;4.00;99.90;;;;;;5069134;28;20101;-85
2023/01/16 05:06:14;;;;;;;18.88;11.18;;;4.00;99.90;;;;;;5061775;28;20052;-86
2023/01/16 05:08:39;;;;;;;25.23;12.48;;;3.90;99.90;;;;;;5053034;28;20558;-87
2023/01/16 05:11:05;;;;;;;24.75;12.57;;;3.90;99.90;;;;;;5059492;28;20079;-87
2023/01/16 05:13:31;;;;;;;21.75;12.30;;;3.90;99.90;;;;;;5084555;28;20055;-87
2023/01/16 05:15:57;;;;;;;24.85;13.38;;;3.70;99.90;;;;;;5056463;28;20044;-87
2023/01/16 05:18:26;;;;;;;25.40;13.05;;;3.70;99.90;;;;;;5068209;28;20044;-87
2023/01/16 05:20:52;;;;;;;28.45;15.68;;;3.70;99.90;;;;;;5064402;28;20044;-88
2023/01/16 05:23:18;;;;;;;29.42;13.40;;;3.40;99.90;;;;;;5049159;28;20124;-87
2023/01/16 05:25:53;;;;;;;25.95;14.10;;;3.30;99.90;;;;;;5068507;28;20056;-84
2023/01/16 05:28:22;;;;;;;28.92;13.68;;;3.20;99.90;;;;;;5089106;28;20043;-83
2023/01/16 05:30:48;;;;;;;28.52;13.45;;;3.10;99.90;;;;;;5074152;28;20055;-85
2023/01/16 05:33:14;;;;;;;33.92;13.52;;;3.10;99.90;;;;;;5065720;28;20049;-83
2023/01/16 05:35:39;;;;;;;32.70;14.32;;;3.00;99.90;;;;;;5048790;28;20098;-82
2023/01/16 05:38:05;;;;;;;28.67;14.27;;;3.00;99.90;;;;;;5056562;28;20069;-82
2023/01/16 05:40:31;;;;;;;30.42;14.45;;;2.90;99.90;;;;;;5056428;28;20048;-86
2023/01/16 05:42:56;;;;;;;31.15;15.18;;;2.80;99.90;;;;;;5065852;28;20044;-86
2023/01/16 05:45:22;;;;;;;34.38;15.00;;;2.80;99.90;;;;;;5055987;28;20052;-87
2023/01/16 05:47:48;;;;;;;30.30;14.50;;;2.80;99.90;;;;;;5090318;28;20123;-88
2023/01/16 05:50:14;;;;;;;29.70;15.00;;;2.70;99.90;;;;;;5036544;28;20055;-86
2023/01/16 05:52:39;;;;;;;28.75;13.80;;;2.70;99.90;;;;;;5056852;28;20485;-85
2023/01/16 05:55:05;;;;;;;35.03;15.23;;;2.70;99.90;;;;;;5071240;28;20132;-84
2023/01/16 05:57:31;;;;;;;32.42;14.48;;;2.60;99.90;;;;;;5091872;28;20082;-88
2023/01/16 05:59:58;;;;;;;34.60;14.25;;;2.60;99.90;;;;;;5069725;28;20113;-88
2023/01/16 06:02:24;;;;;;;32.85;14.63;;;2.60;99.90;;;;;;5087334;28;20477;-88
2023/01/16 06:04:52;;;;;;;38.80;15.60;;;2.70;99.90;;;;;;5070093;28;20094;-87
2023/01/16 06:07:18;;;;;;;34.78;14.73;;;2.80;99.90;;;;;;5052782;28;20046;-86
2023/01/16 06:09:44;;;;;;;28.58;13.85;;;2.90;99.90;;;;;;5084640;28;20484;-83
2023/01/16 06:12:17;;;;;;;32.63;14.90;;;3.00;99.90;;;;;;5065751;28;20538;-83
2023/01/16 06:14:43;;;;;;;28.52;13.52;;;3.10;99.90;;;;;;5065830;28;20421;-82
2023/01/16 06:20:33;;;;;;;34.60;13.93;;;3.20;99.90;;;;;;5086345;28;20057;-83
2023/01/16 06:22:59;;;;;;;22.85;12.70;;;3.20;99.90;;;;;;5079192;28;20126;-84
2023/01/16 06:25:24;;;;;;;31.35;12.40;;;3.20;99.90;;;;;;5054998;28;20071;-83
2023/01/16 06:27:51;;;;;;;30.55;13.18;;;3.00;99.90;;;;;;5045956;28;20044;-83
2023/01/16 06:30:18;;;;;;;25.95;12.02;;;3.00;99.90;;;;;;5073448;28;20436;-88
2023/01/16 06:32:47;;;;;;;29.92;11.70;;;3.00;99.90;;;;;;5052075;28;20052;-88
2023/01/16 06:35:13;;;;;;;26.77;11.30;;;3.10;99.90;;;;;;5060750;28;20155;-85
2023/01/16 06:37:39;;;;;;;24.90;12.00;;;3.10;99.90;;;;;;5042760;28;20401;-86
2023/01/16 06:40:05;;;;;;;28.38;11.95;;;2.80;99.90;;;;;;5059427;28;20075;-84
2023/01/16 06:42:31;;;;;;;20.45;10.30;;;2.80;99.90;;;;;;5051274;28;20043;-84
2023/01/16 06:45:01;;;;;;;21.92;11.00;;;3.00;99.90;;;;;;5088867;28;20040;-86
2023/01/16 06:47:27;;;;;;;23.33;11.77;;;2.80;99.90;;;;;;5043551;28;20055;-83
2023/01/16 06:49:53;;;;;;;25.25;10.93;;;2.80;99.90;;;;;;5074682;28;20118;-83
2023/01/16 06:52:19;;;;;;;24.10;10.50;;;2.90;99.90;;;;;;5070464;28;20047;-86
2023/01/16 06:54:45;;;;;;;23.98;10.93;;;2.90;99.90;;;;;;5079639;28;20369;-85
2023/01/16 06:57:14;;;;;;;19.20;9.75;;;2.90;99.90;;;;;;5037485;28;20052;-85
2023/01/16 06:59:42;;;;;;;29.10;10.80;;;2.80;99.90;;;;;;5060965;28;20094;-83
2023/01/16 07:02:09;;;;;;;18.98;9.23;;;2.80;99.90;;;;;;5066097;28;20401;-83
2023/01/16 07:04:44;;;;;;;21.05;9.50;;;2.70;99.90;;;;;;5061057;28;20044;-85
2023/01/16 07:07:10;;;;;;;22.75;9.75;;;2.70;99.90;;;;;;5059962;28;20129;-85
2023/01/16 07:09:40;;;;;;;23.75;10.70;;;2.50;99.90;;;;;;5061508;28;20489;-85
2023/01/16 07:12:08;;;;;;;25.27;10.73;;;2.70;99.90;;;;;;5081266;28;20044;-85
2023/01/16 07:23:00;;;;;;;25.65;10.20;;;2.60;99.90;;;;;;5068851;28;20047;-84
2023/01/16 07:25:33;;;;;;;23.52;9.30;;;2.60;99.90;;;;;;5078529;28;20054;-83
2023/01/16 07:27:59;;;;;;;19.10;9.18;;;2.80;99.90;;;;;;5079285;28;20051;-85
2023/01/16 07:30:24;;;;;;;25.05;9.02;;;2.60;99.90;;;;;;5094437;28;20051;-86
2023/01/16 07:32:50;;;;;;;20.33;7.85;;;2.60;99.90;;;;;;5060954;28;20389;-84
2023/01/16 07:35:16;;;;;;;19.13;8.07;;;2.60;99.90;;;;;;5059795;28;20052;-84
2023/01/16 07:37:45;;;;;;;24.67;8.75;;;2.60;99.90;;;;;;5075159;28;20074;-84
2023/01/16 07:40:12;;;;;;;23.50;8.38;;;2.60;99.90;;;;;;5055406;28;20059;-84
2023/01/16 07:42:37;;;;;;;20.50;8.23;;;2.60;99.90;;;;;;5057221;28;20573;-87
2023/01/16 07:45:07;;;;;;;18.42;8.10;;;2.60;99.90;;;;;;5074160;28;20118;-83
2023/01/16 07:47:36;;;;;;;20.63;7.78;;;2.60;99.90;;;;;;5084842;28;20126;-84
2023/01/16 07:50:04;;;;;;;16.85;8.25;;;2.70;99.90;;;;;;5050479;28;20525;-84
2023/01/16 07:52:30;;;;;;;18.98;8.02;;;2.70;99.90;;;;;;5040068;28;20050;-84
2023/01/16 07:54:56;;;;;;;17.75;8.65;;;2.90;99.90;;;;;;5057269;28;20048;-85
2023/01/16 07:57:21;;;;;;;23.73;8.35;;;2.70;99.90;;;;;;5055080;28;20511;-83
2023/01/16 07:59:47;;;;;;;20.92;8.73;;;2.80;99.90;;;;;;5088023;28;20043;-82
2023/01/16 08:02:15;;;;;;;28.45;10.13;;;2.80;99.90;;;;;;5077135;28;20043;-85
2023/01/16 08:04:41;;;;;;;23.73;10.07;;;2.80;99.90;;;;;;5056875;28;20083;-84
2023/01/16 08:07:06;;;;;;;20.25;9.55;;;2.80;99.90;;;;;;5062509;28;20128;-83
2023/01/16 08:09:32;;;;;;;24.60;9.77;;;2.80;99.90;;;;;;5074918;28;20044;-84
2023/01/16 08:11:58;;;;;;;22.77;9.63;;;2.90;99.90;;;;;;5064974;28;20766;-81
2023/01/16 08:14:24;;;;;;;28.10;10.50;;;2.90;99.90;;;;;;5093118;28;20044;-81
2023/01/16 08:16:50;;;;;;;24.88;9.73;;;2.90;99.90;;;;;;5042751;28;20044;-83
2023/01/16 08:19:15;;;;;;;26.75;9.57;;;2.90;99.90;;;;;;5075447;28;20040;-81
2023/01/16 08:21:42;;;;;;;20.27;10.18;;;3.00;99.90;;;;;;5073559;28;20044;-81
2023/01/16 08:24:09;;;;;;;22.80;10.02;;;3.00;99.90;;;;;;5061190;28;20036;-82
2023/01/16 08:26:35;;;;;;;19.95;9.13;;;3.00;99.90;;;;;;5092794;28;20047;-83
2023/01/16 08:29:02;;;;;;;23.85;9.57;;;3.00;99.90;;;;;;5078170;28;20036;-81
2023/01/16 08:31:31;;;;;;;17.45;9.95;;;3.00;99.90;;;;;;5075394;28;20112;-81
2023/01/16 08:33:57;;;;;;;24.70;10.73;;;3.20;99.90;;;;;;5093079;28;20369;-81
2023/01/16 08:36:23;;;;;;;18.50;9.23;;;3.10;99.90;;;;;;5095544;28;20054;-82
2023/01/16 08:38:49;;;;;;;20.00;9.52;;;3.10;99.90;;;;;;5072135;28;20036;-81
2023/01/16 08:52:30;;;;;;;14.52;7.95;;;3.30;99.90;;;;;;5079979;28;20101;-81
2023/01/16 08:54:57;;;;;;;18.25;8.40;;;3.40;99.90;;;;;;5060537;28;20578;-86
2023/01/16 08:57:23;;;;;;;13.10;7.22;;;3.40;99.90;;;;;;5047585;28;20557;-81
2023/01/16 08:59:49;;;;;;;14.70;7.20;;;3.40;99.90;;;;;;5087011;28;20092;-81
2023/01/16 09:02:15;;;;;;;15.32;7.63;;;3.40;99.90;;;;;;5036462;28;20040;-80
2023/01/16 09:04:41;;;;;;;11.80;6.97;;;3.70;99.90;;;;;;5087077;28;20082;-86
2023/01/16 09:07:07;;;;;;;17.00;7.05;;;3.80;99.90;;;;;;5064868;28;20073;-83
2023/01/16 09:09:34;;;;;;;17.27;7.10;;;3.50;99.90;;;;;;5076566;28;20040;-82
2023/01/16 09:14:43;;;;;;;18.52;7.85;;;3.60;99.90;;;;;;5100654;28;20627;-84
2023/01/16 09:17:09;;;;;;;14.23;6.75;;;3.60;99.90;;;;;;5067286;28;20130;-82
2023/01/16 09:19:35;;;;;;;16.38;6.85;;;3.70;99.90;;;;;;5043469;28;20122;-81
2023/01/16 09:22:05;;;;;;;12.65;6.13;;;3.70;99.90;;;;;;5066905;28;20036;-81
2023/01/16 09:24:34;;;;;;;10.63;5.75;;;3.70;99.90;;;;;;5077752;28;20480;-81
2023/01/16 09:27:01;;;;;;;12.40;5.63;;;3.80;99.90;;;;;;5073140;28;20056;-82
2023/01/16 09:29:27;;;;;;;12.13;5.80;;;4.00;99.90;;;;;;5074712;28;20043;-82
2023/01/16 09:31:53;;;;;;;9.95;5.88;;;4.00;99.90;;;;;;5070292;28;20055;-81
2023/01/16 09:34:19;;;;;;;9.98;5.50;;;3.80;99.90;;;;;;5078135;28;20059;-82
2023/01/16 09:36:45;;;;;;;10.65;6.00;;;3.80;99.90;;;;;;5079310;28;20074;-84
2023/01/16 09:39:11;;;;;;;13.80;6.60;;;3.80;99.90;;;;;;5080608;28;20036;-83
2023/01/16 09:44:39;;;;;;;16.35;6.32;;;3.90;99.90;;;;;;5086687;28;20067;-83
2023/01/16 09:47:08;;;;;;;12.98;8.00;;;3.90;99.90;;;;;;5068754;28;20505;-81
2023/01/16 09:50:09;;;;;;;10.15;5.50;;;3.90;99.90;;;;;;5065956;28;20035;-83
2023/01/16 09:58:36;;;;;;;11.85;6.13;;;4.00;99.90;;;;;;5110713;28;20376;-82
2023/01/16 10:01:16;;;;;;;9.02;4.95;;;4.00;99.90;;;;;;5100576;28;20055;-82
2023/01/16 10:03:42;;;;;;;11.00;4.97;;;4.00;99.90;;;;;;5101811;28;20055;-81
2023/01/16 10:06:14;;;;;;;48.00;24.27;;;4.00;99.90;;;;;;5098940;28;20035;-81
2023/01/16 10:09:08;;;;;;;14.32;7.22;;;4.00;99.90;;;;;;5078505;28;20083;-81
2023/01/16 10:11:44;;;;;;;14.25;6.97;;;4.00;99.90;;;;;;5061876;28;20040;-81
2023/01/16 10:14:36;;;;;;;10.40;4.63;;;4.00;99.90;;;;;;5073563;28;20035;-81
2023/01/16 10:17:20;;;;;;;10.43;4.63;;;4.00;99.90;;;;;;5088880;28;20050;-81
2023/01/16 10:20:10;;;;;;;12.40;5.43;;;4.00;99.90;;;;;;5093436;28;20052;-81
2023/01/16 10:23:10;;;;;;;9.90;4.90;;;4.00;99.90;;;;;;5094992;28;20447;-82
2023/01/16 10:26:00;;;;;;;11.55;4.45;;;4.00;99.90;;;;;;5063965;28;20142;-81
2023/01/16 10:28:44;;;;;;;11.07;4.63;;;4.00;99.90;;;;;;5066314;28;20075;-82
2023/01/16 10:31:22;;;;;;;10.70;4.05;;;4.00;99.90;;;;;;5067107;28;20058;-80
2023/01/16 10:34:00;;;;;;;25.08;11.95;;;4.00;99.90;;;;;;5076863;28;20043;-79
2023/01/16 10:36:31;;;;;;;14.98;5.70;;;4.00;99.90;;;;;;5082753;28;20070;-81
2023/01/16 10:38:59;;;;;;;9.98;4.35;;;4.00;99.90;;;;;;5080114;28;20059;-80
2023/01/16 10:50:23;;;;;;;6.45;3.85;;;3.80;99.90;;;;;;5078272;28;20528;-81
2023/01/16 10:52:49;;;;;;;6.90;3.78;;;3.80;99.90;;;;;;5091040;28;20058;-80
2023/01/16 10:55:16;;;;;;;7.63;3.80;;;3.80;99.90;;;;;;5081034;28;20386;-80
2023/01/16 10:57:54;;;;;;;9.07;4.53;;;3.70;99.90;;;;;;5048763;28;20056;-82
2023/01/16 11:00:29;;;;;;;6.60;4.57;;;3.60;99.90;;;;;;5091250;28;20048;-81
2023/01/16 11:03:07;;;;;;;11.43;4.65;;;3.70;99.90;;;;;;5076241;28;20512;-80
2023/01/16 11:05:36;;;;;;;7.05;4.57;;;3.60;99.90;;;;;;5084693;28;20039;-80
2023/01/16 11:08:10;;;;;;;6.90;4.07;;;3.60;99.90;;;;;;5064825;28;20063;-80
2023/01/16 11:10:37;;;;;;;13.00;5.07;;;3.70;99.90;;;;;;5069819;28;20051;-86
2023/01/16 11:18:49;;;;;;;12.63;4.75;;;3.70;99.90;;;;;;5076886;28;20051;-82
2023/01/16 11:21:29;;;;;;;7.93;5.05;;;3.70;99.90;;;;;;5060418;28;20051;-82
2023/01/16 11:24:24;;;;;;;8.52;4.75;;;3.70;99.90;;;;;;5068943;28;20047;-82
2023/01/16 11:26:56;;;;;;;14.13;4.78;;;3.70;99.90;;;;;;5083927;28;20073;-81
2023/01/16 11:29:24;;;;;;;9.60;5.28;;;3.80;99.90;;;;;;5076833;28;20130;-81
2023/01/16 11:31:57;;;;;;;11.82;5.18;;;3.80;99.90;;;;;;5072723;28;20047;-81
2023/01/16 11:34:28;;;;;;;11.90;4.85;;;3.80;99.90;;;;;;5076638;28;20036;-84
2023/01/16 11:37:01;;;;;;;9.30;4.75;;;3.70;99.90;;;;;;5076332;28;20083;-82
2023/01/16 11:39:30;;;;;;;9.73;6.13;;;3.80;99.90;;;;;;5081262;28;20059;-81
2023/01/16 11:41:59;;;;;;;12.13;5.50;;;3.80;99.90;;;;;;5096454;28;20040;-82
2023/01/16 11:47:22;;;;;;;12.35;5.25;;;3.80;99.90;;;;;;5095619;28;20050;-81
2023/01/16 11:49:51;;;;;;;10.63;5.13;;;3.80;99.90;;;;;;5079308;28;20052;-82
2023/01/16 11:52:29;;;;;;;8.55;4.70;;;3.90;99.90;;;;;;5075422;28;20052;-82
2023/01/16 11:54:57;;;;;;;10.77;5.30;;;3.80;99.90;;;;;;5083751;28;20410;-81
2023/01/16 11:57:34;;;;;;;6.35;4.40;;;3.80;99.90;;;;;;5098365;28;20051;-81
2023/01/16 12:00:14;;;;;;;7.53;4.78;;;3.90;99.90;;;;;;5077068;28;20055;-80
2023/01/16 12:02:39;;;;;;;11.60;4.75;;;3.90;99.90;;;;;;5096532;28;20055;-82
2023/01/16 12:05:56;;;;;;;16.42;6.18;;;3.90;99.90;;;;;;5096309;28;20252;-82
2023/01/16 12:09:06;;;;;;;6.38;4.78;;;3.90;99.90;;;;;;5085962;28;20438;-82
2023/01/16 12:11:51;;;;;;;15.85;6.57;;;4.00;99.90;;;;;;5066253;28;20056;-82
2023/01/16 12:14:33;;;;;;;12.23;6.40;;;4.00;99.90;;;;;;5076394;28;20043;-82
2023/01/16 12:17:27;;;;;;;12.27;6.22;;;4.00;99.90;;;;;;5076455;28;20131;-82
2023/01/16 12:20:08;;;;;;;9.38;6.20;;;4.00;99.90;;;;;;5059572;28;20443;-82
2023/01/16 12:23:10;;;;;;;11.73;5.65;;;4.10;99.90;;;;;;5099952;28;20043;-82
2023/01/16 12:25:55;;;;;;;8.20;4.97;;;4.10;99.90;;;;;;5092648;28;20074;-81
2023/01/16 12:28:42;;;;;;;10.20;5.20;;;4.10;99.90;;;;;;5076208;28;20055;-82
2023/01/16 12:31:29;;;;;;;11.15;5.55;;;4.20;99.90;;;;;;5096383;28;20062;-82
2023/01/16 12:37:28;;;;;;;9.25;5.22;;;4.20;99.90;;;;;;5093974;28;20047;-82
2023/01/16 12:40:12;;;;;;;12.93;6.10;;;4.30;99.90;;;;;;5095794;28;20473;-82
2023/01/16 12:43:18;;;;;;;9.77;5.10;;;4.30;99.90;;;;;;5096122;28;20052;-84
2023/01/16 12:46:00;;;;;;;7.90;4.72;;;4.30;99.90;;;;;;5094845;28;20082;-83
2023/01/16 12:52:14;;;;;;;13.57;4.78;;;4.30;99.90;;;;;;5075911;28;20060;-82
2023/01/16 12:55:05;;;;;;;8.15;4.47;;;4.30;99.90;;;;;;5086567;28;20122;-83
2023/01/16 12:57:53;;;;;;;9.13;5.03;;;4.30;99.90;;;;;;5083490;28;20039;-82
2023/01/16 13:00:27;;;;;;;14.02;5.32;;;4.30;99.90;;;;;;5060874;28;20055;-83
2023/01/16 13:03:01;;;;;;;12.68;5.00;;;4.30;99.90;;;;;;5084138;28;20043;-83
2023/01/16 13:05:35;;;;;;;12.35;5.13;;;4.30;99.90;;;;;;5075604;28;20050;-82
2023/01/16 13:08:14;;;;;;;10.25;5.05;;;4.40;99.90;;;;;;5071321;28;20047;-83
2023/01/16 13:13:35;;;;;;;17.23;8.32;;;4.40;99.90;;;;;;5095830;28;20410;-83
2023/01/16 13:16:30;;;;;;;12.07;6.13;;;4.40;99.90;;;;;;5075781;28;20444;-82
2023/01/16 13:19:19;;;;;;;9.23;5.47;;;4.40;99.90;;;;;;5086491;28;20382;-82
2023/01/16 13:22:04;;;;;;;8.77;4.57;;;4.40;99.90;;;;;;5075727;28;20393;-82
2023/01/16 13:24:53;;;;;;;9.65;5.40;;;4.40;99.90;;;;;;5059039;28;20052;-82
2023/01/16 13:27:45;;;;;;;7.85;5.30;;;4.40;99.90;;;;;;5045575;28;20055;-82
2023/01/16 13:30:17;;;;;;;8.90;4.60;;;4.50;99.90;;;;;;5075431;28;20055;-82
2023/01/16 13:32:55;;;;;;;10.98;5.68;;;4.40;99.90;;;;;;5058996;28;20554;-83
2023/01/16 13:35:42;;;;;;;10.98;5.43;;;4.40;99.90;;;;;;5059021;28;20431;-82
2023/01/16 13:38:13;;;;;;;;;;;4.40;99.90;;;;;;5092817;28;20135;-82
2023/01/16 13:40:42;;;;;;;7.57;4.68;;;4.50;99.90;;;;;;5075972;28;20265;-82
2023/01/16 13:46:08;;;;;;;9.48;5.38;;;4.60;99.90;;;;;;5091295;28;20060;-82
2023/01/16 13:48:36;;;;;;;12.23;5.35;;;4.50;99.90;;;;;;5075575;28;20442;-82
2023/01/16 13:51:16;;;;;;;11.13;5.95;;;4.70;99.90;;;;;;5062385;28;20051;-83
2023/01/16 13:53:49;;;;;;;11.68;6.20;;;4.60;99.90;;;;;;5063493;28;20051;-82
2023/01/16 13:56:22;;;;;;;10.40;5.30;;;4.50;99.90;;;;;;5059039;28;20055;-82
2023/01/16 13:59:02;;;;;;;8.25;5.00;;;4.50;99.90;;;;;;5079471;28;20046;-82
2023/01/16 14:01:53;;;;;;;11.18;5.32;;;4.60;99.90;;;;;;5093318;28;20056;-82
2023/01/16 14:04:19;;;;;;;8.20;4.65;;;4.60;99.90;;;;;;5055596;28;20040;-82
2023/01/16 14:09:03;;;;;;;8.60;4.72;;;4.60;99.90;;;;;;5071642;28;20044;-82
2023/01/16 14:13:24;;;;;;;7.68;4.80;;;4.60;99.90;;;;;;5051961;28;20049;-82
2023/01/16 14:19:02;;;;;;;8.77;5.35;;;4.60;99.90;;;;;;5027701;28;20110;-82
2023/01/16 14:21:39;;;;;;;9.45;5.13;;;4.60;99.90;;;;;;5065390;28;20049;-83
2023/01/16 14:24:18;;;;;;;11.30;6.35;;;4.60;99.90;;;;;;5038650;28;20497;-83
2023/01/16 14:26:53;;;;;;;10.93;6.32;;;4.80;99.90;;;;;;5073094;28;20045;-83
2023/01/16 14:29:26;;;;;;;6.80;4.38;;;4.60;99.90;;;;;;5038857;28;20110;-83
2023/01/16 14:32:13;;;;;;;8.70;4.82;;;4.60;99.90;;;;;;5038687;28;20063;-83